Time;durP1;ratioP1;P1;durP2;ratioP2;P2;SDS_P1;SDS_P2;PMS_P1;PMS_P2;Temp;Humidity;BMP_temperature;BMP_pressure;BME280_temperature;BME280_humidity;BME280_pressure;Samples;Min_cycle;Max_cycle;Signal;HPM_P1;HPM_P2
2023/07/20 00:01:14;;;;;;;15.07;10.93;;;16.60;99.90;;;;;;5052472;28;20029;-91
2023/07/20 00:03:40;;;;;;;14.52;10.23;;;16.50;99.90;;;;;;5047567;28;20021;-91
2023/07/20 00:06:05;;;;;;;16.15;11.20;;;16.60;99.90;;;;;;5049033;28;20029;-91
2023/07/20 00:08:31;;;;;;;14.20;10.65;;;16.50;99.90;;;;;;5052011;28;20033;-91
2023/07/20 00:10:56;;;;;;;13.50;10.73;;;16.60;99.90;;;;;;5050958;28;20108;-91
2023/07/20 00:13:22;;;;;;;14.05;9.98;;;16.60;99.90;;;;;;5040554;28;20400;-92
2023/07/20 00:15:48;;;;;;;16.17;10.68;;;16.60;99.90;;;;;;5049199;28;20137;-91
2023/07/20 00:18:13;;;;;;;16.30;10.35;;;16.60;99.90;;;;;;5058730;28;20025;-91
2023/07/20 00:20:39;;;;;;;15.70;10.75;;;16.60;99.90;;;;;;5058308;28;20027;-91
2023/07/20 00:23:05;;;;;;;15.20;10.60;;;16.60;99.90;;;;;;5051901;28;20396;-91
2023/07/20 00:25:31;;;;;;;16.58;10.70;;;16.60;99.90;;;;;;5053141;28;20158;-92
2023/07/20 00:27:56;;;;;;;19.35;11.43;;;16.60;99.90;;;;;;5051786;28;20064;-93
2023/07/20 00:30:22;;;;;;;15.63;11.55;;;16.60;99.90;;;;;;5038189;28;20034;-92
2023/07/20 00:32:47;;;;;;;19.67;12.85;;;16.70;99.90;;;;;;5046796;28;20035;-92
2023/07/20 00:35:13;;;;;;;17.10;12.35;;;16.60;99.90;;;;;;5052351;28;20025;-92
2023/07/20 00:37:39;;;;;;;20.33;11.75;;;16.60;99.90;;;;;;5068189;28;20051;-92
2023/07/20 00:40:07;;;;;;;16.80;11.18;;;16.60;99.90;;;;;;5035615;28;20034;-93
2023/07/20 00:42:33;;;;;;;18.45;10.93;;;16.50;99.90;;;;;;5035414;28;20070;-92
2023/07/20 00:44:59;;;;;;;15.45;10.70;;;16.40;99.90;;;;;;5052486;28;20053;-92
2023/07/20 00:47:25;;;;;;;17.10;10.73;;;16.40;99.90;;;;;;5052321;28;20054;-92
2023/07/20 00:49:52;;;;;;;14.13;9.50;;;16.30;99.90;;;;;;5051195;28;20029;-92
2023/07/20 00:52:20;;;;;;;14.95;9.30;;;16.30;99.90;;;;;;5046761;28;20048;-92
2023/07/20 00:54:46;;;;;;;14.25;9.48;;;16.30;99.90;;;;;;5050919;28;20037;-92
2023/07/20 00:57:14;;;;;;;13.63;8.05;;;16.20;99.90;;;;;;5051870;28;20073;-92
2023/07/20 00:59:40;;;;;;;11.32;8.18;;;16.20;99.90;;;;;;5051618;28;20540;-91
2023/07/20 01:02:05;;;;;;;11.77;7.70;;;16.10;99.90;;;;;;5052318;28;20052;-92
2023/07/20 01:04:31;;;;;;;11.48;7.95;;;16.10;99.90;;;;;;5049681;28;20029;-92
2023/07/20 01:07:01;;;;;;;14.18;8.43;;;16.10;99.90;;;;;;5048750;28;20022;-92
2023/07/20 01:09:33;;;;;;;12.55;8.27;;;16.00;99.90;;;;;;5048728;28;20072;-92
2023/07/20 01:12:07;;;;;;;12.70;8.95;;;16.00;99.90;;;;;;5052140;28;20024;-92
2023/07/20 01:14:34;;;;;;;12.52;8.77;;;16.00;99.90;;;;;;5048244;28;20036;-91
2023/07/20 01:16:59;;;;;;;11.20;8.65;;;16.00;99.90;;;;;;5046660;28;20041;-92
2023/07/20 01:19:25;;;;;;;10.50;8.00;;;16.00;99.90;;;;;;5044383;28;20029;-92
2023/07/20 01:21:57;;;;;;;14.10;8.52;;;15.90;99.90;;;;;;5050928;28;20032;-92
2023/07/20 01:24:56;;;;;;;11.15;9.00;;;15.90;99.90;;;;;;5051508;28;20029;-92
2023/07/20 01:27:53;;;;;;;11.85;8.15;;;16.00;99.90;;;;;;5051667;28;20053;-92
2023/07/20 01:30:43;;;;;;;10.88;8.27;;;15.90;99.90;;;;;;5039922;28;20041;-91
2023/07/20 01:33:11;;;;;;;12.80;8.35;;;16.00;99.90;;;;;;5051731;28;20033;-92
2023/07/20 01:35:38;;;;;;;12.95;8.80;;;16.00;99.90;;;;;;5050689;28;20073;-92
2023/07/20 01:38:04;;;;;;;11.80;8.68;;;16.00;99.90;;;;;;5046421;28;20087;-93
2023/07/20 01:40:30;;;;;;;13.05;8.70;;;16.00;99.90;;;;;;5051268;28;20025;-92
2023/07/20 01:42:56;;;;;;;11.50;8.07;;;16.00;99.90;;;;;;5050587;28;20021;-91
2023/07/20 01:45:22;;;;;;;13.13;8.18;;;16.10;99.90;;;;;;5031927;28;20392;-92
2023/07/20 01:47:47;;;;;;;12.52;8.55;;;16.00;99.90;;;;;;5043706;28;20025;-92
2023/07/20 01:50:13;;;;;;;10.50;7.38;;;16.10;99.90;;;;;;5048285;28;20034;-91
2023/07/20 01:52:38;;;;;;;9.50;8.20;;;16.10;99.90;;;;;;5045977;28;20021;-92
2023/07/20 01:55:04;;;;;;;9.85;8.05;;;16.10;99.90;;;;;;5037287;28;20477;-92
2023/07/20 01:57:30;;;;;;;9.35;7.88;;;16.10;99.90;;;;;;5032649;28;20022;-91
2023/07/20 01:59:55;;;;;;;10.55;7.07;;;16.10;99.90;;;;;;5050857;28;20086;-91
2023/07/20 02:02:22;;;;;;;12.50;8.50;;;16.10;99.90;;;;;;5050543;28;20029;-92
2023/07/20 02:04:48;;;;;;;10.68;7.97;;;16.10;99.90;;;;;;5051181;28;20029;-91
2023/07/20 02:07:13;;;;;;;9.65;6.85;;;16.00;99.90;;;;;;5050545;28;20025;-91
2023/07/20 02:09:39;;;;;;;9.73;7.40;;;16.00;99.90;;;;;;5066177;28;20097;-92
2023/07/20 02:12:05;;;;;;;10.13;7.20;;;16.00;99.90;;;;;;5050918;28;20029;-92
2023/07/20 02:14:30;;;;;;;10.43;6.75;;;16.00;99.90;;;;;;5048016;28;20036;-92
2023/07/20 02:16:57;;;;;;;9.27;6.30;;;15.90;99.90;;;;;;5051026;28;20044;-91
2023/07/20 02:19:25;;;;;;;8.20;5.63;;;15.90;99.90;;;;;;5058513;28;20098;-92
2023/07/20 02:21:51;;;;;;;12.50;6.38;;;15.80;99.90;;;;;;5051071;28;20021;-90
2023/07/20 02:24:16;;;;;;;7.80;5.75;;;15.80;99.90;;;;;;5050820;28;20079;-91
2023/07/20 02:26:42;;;;;;;8.85;5.20;;;15.70;99.90;;;;;;5051020;28;20055;-91
2023/07/20 02:29:08;;;;;;;8.90;5.53;;;15.70;99.90;;;;;;5045270;28;20128;-92
2023/07/20 02:31:33;;;;;;;7.82;5.22;;;15.70;99.90;;;;;;5050495;28;20025;-91
2023/07/20 02:33:59;;;;;;;8.82;5.25;;;15.60;99.90;;;;;;5036318;28;20079;-91
2023/07/20 02:36:24;;;;;;;6.20;4.90;;;15.70;99.90;;;;;;5054271;28;20041;-92
2023/07/20 02:38:50;;;;;;;7.60;4.93;;;15.60;99.90;;;;;;5054118;28;20032;-91
2023/07/20 02:41:15;;;;;;;7.38;4.50;;;15.50;99.90;;;;;;5054787;28;20025;-91
2023/07/20 02:43:41;;;;;;;6.18;4.30;;;15.50;99.90;;;;;;5054460;28;20047;-92
2023/07/20 02:46:06;;;;;;;6.47;4.38;;;15.40;99.90;;;;;;5054525;28;20473;-91
2023/07/20 02:48:32;;;;;;;6.13;4.43;;;15.30;99.90;;;;;;5057378;28;20031;-91
2023/07/20 02:50:57;;;;;;;4.35;3.80;;;15.30;99.90;;;;;;5053307;28;20074;-91
2023/07/20 02:53:23;;;;;;;5.75;4.05;;;15.20;99.90;;;;;;5054312;28;20063;-92
2023/07/20 02:55:48;;;;;;;6.03;4.18;;;15.10;99.90;;;;;;5054246;28;20025;-91
2023/07/20 02:58:14;;;;;;;4.35;3.67;;;15.10;99.90;;;;;;5053835;28;20025;-92
2023/07/20 03:00:42;;;;;;;7.15;4.43;;;15.00;99.90;;;;;;5054076;28;20036;-92
2023/07/20 03:03:09;;;;;;;5.35;4.55;;;14.90;99.90;;;;;;5053746;28;20017;-92
2023/07/20 03:05:37;;;;;;;6.68;4.35;;;14.90;99.90;;;;;;5054221;28;20021;-92
2023/07/20 03:08:06;;;;;;;7.13;4.93;;;14.80;99.90;;;;;;5052516;28;20456;-92
2023/07/20 03:10:32;;;;;;;5.57;4.63;;;14.70;99.90;;;;;;5049998;28;20059;-93
2023/07/20 03:12:57;;;;;;;6.32;4.75;;;14.70;99.90;;;;;;5053704;28;20119;-91
2023/07/20 03:15:23;;;;;;;6.00;4.68;;;14.60;99.90;;;;;;5053932;28;20128;-92
2023/07/20 03:17:48;;;;;;;6.35;5.32;;;14.60;99.90;;;;;;5052647;28;20017;-91
2023/07/20 03:20:14;;;;;;;5.78;5.18;;;14.60;99.90;;;;;;5045142;28;20024;-92
2023/07/20 03:22:39;;;;;;;7.40;5.15;;;14.50;99.90;;;;;;5053145;28;20029;-92
2023/07/20 03:25:05;;;;;;;8.65;5.60;;;14.50;99.90;;;;;;5053446;28;20550;-92
2023/07/20 03:27:31;;;;;;;9.88;6.28;;;14.50;99.90;;;;;;5050114;28;20022;-92
2023/07/20 03:29:56;;;;;;;8.65;6.07;;;14.40;99.90;;;;;;5048042;28;20136;-91
2023/07/20 03:32:22;;;;;;;6.53;5.05;;;14.30;99.90;;;;;;5046463;28;20036;-91
2023/07/20 03:34:47;;;;;;;8.50;6.15;;;14.30;99.90;;;;;;5049880;28;20029;-91
2023/07/20 03:37:13;;;;;;;5.55;4.97;;;14.30;99.90;;;;;;5053785;28;20017;-91
2023/07/20 03:39:38;;;;;;;7.35;5.22;;;14.30;99.90;;;;;;5051553;28;20155;-92
2023/07/20 03:42:04;;;;;;;6.35;5.05;;;14.20;99.90;;;;;;5052666;28;20420;-91
2023/07/20 03:44:30;;;;;;;10.05;6.05;;;14.20;99.90;;;;;;5049756;28;20124;-92
2023/07/20 03:46:56;;;;;;;7.55;4.82;;;14.10;99.90;;;;;;5047284;28;20055;-92
2023/07/20 03:49:21;;;;;;;5.72;4.97;;;14.20;99.90;;;;;;5049579;28;20128;-92
2023/07/20 03:51:47;;;;;;;6.47;5.38;;;14.10;99.90;;;;;;5054576;28;20028;-92
2023/07/20 03:54:12;;;;;;;6.60;4.90;;;14.00;99.90;;;;;;5053385;28;20060;-92
2023/07/20 03:56:38;;;;;;;5.55;4.18;;;14.00;99.90;;;;;;5054010;28;20028;-92
2023/07/20 03:59:05;;;;;;;5.50;4.15;;;13.90;99.90;;;;;;5053706;28;20017;-92
2023/07/20 04:01:36;;;;;;;6.93;4.60;;;13.90;99.90;;;;;;5052771;28;20029;-91
2023/07/20 04:04:04;;;;;;;6.63;4.63;;;13.80;99.90;;;;;;5036878;28;20029;-92
2023/07/20 04:06:29;;;;;;;6.63;4.78;;;13.80;99.90;;;;;;5053296;28;20092;-92
2023/07/20 04:08:55;;;;;;;6.40;5.10;;;13.80;99.90;;;;;;5054495;28;20111;-91
2023/07/20 04:11:20;;;;;;;5.75;4.97;;;13.80;99.90;;;;;;5043291;28;20041;-92
2023/07/20 04:13:46;;;;;;;5.47;4.90;;;13.80;99.90;;;;;;5046422;28;20037;-91
2023/07/20 04:16:11;;;;;;;5.95;4.50;;;13.70;99.90;;;;;;5052655;28;20057;-92
2023/07/20 04:18:37;;;;;;;4.78;4.15;;;13.70;99.90;;;;;;5052527;28;20029;-92
2023/07/20 04:21:02;;;;;;;5.75;3.90;;;13.70;99.90;;;;;;5053253;28;20055;-93
2023/07/20 04:23:28;;;;;;;7.22;5.07;;;13.70;99.90;;;;;;5051456;28;20024;-91
2023/07/20 04:25:53;;;;;;;5.60;4.63;;;13.70;99.90;;;;;;5053115;28;20037;-92
2023/07/20 04:28:19;;;;;;;6.65;5.13;;;13.70;99.90;;;;;;5052883;28;20025;-91
2023/07/20 04:30:44;;;;;;;7.32;5.55;;;13.70;99.90;;;;;;5052392;28;20025;-92
2023/07/20 04:33:10;;;;;;;8.60;6.05;;;13.80;99.90;;;;;;5053032;28;20021;-91
2023/07/20 04:35:51;;;;;;;7.38;5.75;;;13.80;99.90;;;;;;5052474;28;20025;-91
2023/07/20 04:38:17;;;;;;;9.35;6.15;;;13.90;99.90;;;;;;5052446;28;20036;-92
2023/07/20 04:40:48;;;;;;;7.97;5.85;;;13.90;99.90;;;;;;5053019;28;20025;-92
2023/07/20 04:43:14;;;;;;;7.88;5.93;;;13.90;99.90;;;;;;5048674;28;20018;-92
2023/07/20 04:45:40;;;;;;;9.60;6.38;;;13.90;99.90;;;;;;5042491;28;20057;-91
2023/07/20 04:48:10;;;;;;;13.15;5.38;;;14.00;99.90;;;;;;5052758;28;20100;-91
2023/07/20 04:50:36;;;;;;;7.22;5.93;;;14.00;99.90;;;;;;5052870;28;20090;-91
2023/07/20 04:53:02;;;;;;;7.43;5.78;;;14.10;99.90;;;;;;5049722;28;20026;-93
2023/07/20 04:55:28;;;;;;;10.10;5.55;;;14.10;99.90;;;;;;5060960;28;20048;-90
2023/07/20 04:57:53;;;;;;;8.23;5.45;;;14.20;99.90;;;;;;5050889;28;20473;-91
2023/07/20 05:00:19;;;;;;;9.07;7.35;;;14.30;99.90;;;;;;5051096;28;20021;-91
2023/07/20 05:02:47;;;;;;;7.85;7.03;;;14.30;99.90;;;;;;5049157;28;20029;-92
2023/07/20 05:05:13;;;;;;;12.73;7.88;;;14.40;99.90;;;;;;5047014;28;20025;-91
2023/07/20 05:07:38;;;;;;;9.43;6.93;;;14.50;99.90;;;;;;5042153;28;20037;-92
2023/07/20 05:10:05;;;;;;;7.78;6.65;;;14.60;99.90;;;;;;5048413;28;20033;-92
2023/07/20 05:12:30;;;;;;;10.68;7.22;;;14.70;99.90;;;;;;5050458;28;20059;-91
2023/07/20 05:14:56;;;;;;;10.45;6.60;;;14.70;99.90;;;;;;5052069;28;20571;-91
2023/07/20 05:17:21;;;;;;;6.72;6.13;;;14.80;99.90;;;;;;5049951;28;20041;-91
2023/07/20 05:19:47;;;;;;;7.07;6.38;;;14.90;99.90;;;;;;5050692;28;20039;-92
2023/07/20 05:22:13;;;;;;;8.82;6.85;;;15.00;99.90;;;;;;5051617;28;20037;-92
2023/07/20 05:24:39;;;;;;;6.38;5.78;;;15.10;99.90;;;;;;5051119;28;20025;-91
2023/07/20 05:27:05;;;;;;;7.53;6.13;;;15.10;99.90;;;;;;5042196;28;20132;-91
2023/07/20 05:29:31;;;;;;;8.77;5.57;;;15.20;99.90;;;;;;5051297;28;20072;-91
2023/07/20 05:31:57;;;;;;;9.48;5.10;;;15.30;99.90;;;;;;5048713;28;20033;-91
2023/07/20 05:34:23;;;;;;;5.38;4.78;;;15.40;99.90;;;;;;5045317;28;20044;-91
2023/07/20 05:36:48;;;;;;;6.93;4.88;;;15.40;99.90;;;;;;5044578;28;20057;-91
2023/07/20 05:39:14;;;;;;;4.55;4.15;;;15.40;99.90;;;;;;5050652;28;20052;-91
2023/07/20 05:41:40;;;;;;;5.60;3.67;;;15.50;99.90;;;;;;5052405;28;20419;-91
2023/07/20 05:44:06;;;;;;;5.38;3.63;;;15.80;99.90;;;;;;5060036;28;20044;-92
2023/07/20 05:46:31;;;;;;;5.20;3.33;;;16.10;99.90;;;;;;5052977;28;20028;-88
2023/07/20 05:48:57;;;;;;;4.05;2.40;;;16.40;99.90;;;;;;5043705;28;20103;-89
2023/07/20 05:51:22;;;;;;;3.92;2.60;;;16.60;99.90;;;;;;5051350;28;20029;-89
2023/07/20 05:53:48;;;;;;;5.53;2.78;;;16.80;99.90;;;;;;5052271;28;20087;-89
2023/07/20 05:56:14;;;;;;;3.95;2.35;;;16.90;99.90;;;;;;5051909;28;20431;-89
2023/07/20 05:58:39;;;;;;;2.50;2.20;;;16.90;99.90;;;;;;5055238;28;20426;-90
2023/07/20 06:01:07;;;;;;;5.85;2.20;;;16.90;99.90;;;;;;5054369;28;20033;-90
2023/07/20 06:03:34;;;;;;;3.15;2.85;;;16.90;99.90;;;;;;5039385;28;20032;-89
2023/07/20 06:06:04;;;;;;;3.80;2.60;;;17.00;99.90;;;;;;5051334;28;20075;-89
2023/07/20 06:08:31;;;;;;;3.97;2.58;;;16.90;99.90;;;;;;5050212;28;20025;-89
2023/07/20 06:10:57;;;;;;;4.70;2.92;;;16.80;99.90;;;;;;5054448;28;20041;-88
2023/07/20 06:13:24;;;;;;;5.95;3.05;;;16.80;99.90;;;;;;5046276;28;20036;-89
2023/07/20 06:15:49;;;;;;;4.50;3.22;;;16.80;99.90;;;;;;5051227;28;20404;-88
2023/07/20 06:18:15;;;;;;;3.72;2.30;;;16.70;99.90;;;;;;5054877;28;20029;-88
2023/07/20 06:20:40;;;;;;;3.95;2.92;;;16.60;99.90;;;;;;5065672;28;20028;-91
2023/07/20 06:23:06;;;;;;;4.05;3.40;;;16.60;99.90;;;;;;5067837;28;20017;-90
2023/07/20 06:25:31;;;;;;;4.45;3.35;;;16.60;99.90;;;;;;5053822;28;20056;-90
2023/07/20 06:27:57;;;;;;;4.57;3.22;;;16.80;99.90;;;;;;5054240;28;20384;-90
2023/07/20 06:30:22;;;;;;;4.13;2.38;;;16.80;99.90;;;;;;5054827;28;20033;-90
2023/07/20 06:32:48;;;;;;;2.50;1.95;;;16.90;99.90;;;;;;5054923;28;20025;-90
2023/07/20 06:35:16;;;;;;;3.20;2.13;;;16.90;99.90;;;;;;5042164;28;20033;-90
2023/07/20 06:37:42;;;;;;;3.75;1.77;;;16.90;99.90;;;;;;5054097;28;20025;-90
2023/07/20 06:40:09;;;;;;;3.08;1.95;;;16.90;99.90;;;;;;5055354;28;20047;-91
2023/07/20 06:42:34;;;;;;;5.30;1.92;;;17.00;99.90;;;;;;5054989;28;20120;-91
2023/07/20 06:45:00;;;;;;;3.00;2.05;;;17.00;99.90;;;;;;5054170;28;20052;-91
2023/07/20 06:47:26;;;;;;;2.80;1.13;;;17.10;99.90;;;;;;5055002;28;20033;-90
2023/07/20 06:49:52;;;;;;;1.73;1.13;;;17.10;99.90;;;;;;5054345;28;20032;-92
2023/07/20 06:52:18;;;;;;;2.53;1.50;;;17.30;99.90;;;;;;5049702;28;20389;-90
2023/07/20 06:54:43;;;;;;;2.40;1.40;;;17.40;99.90;;;;;;5055161;28;20115;-90
2023/07/20 06:57:09;;;;;;;3.78;1.63;;;17.50;99.90;;;;;;5053343;28;20385;-89
2023/07/20 06:59:34;;;;;;;1.88;0.75;;;17.70;99.90;;;;;;5052779;28;20057;-90
2023/07/20 07:02:00;;;;;;;3.17;0.45;;;17.80;99.90;;;;;;5040689;28;20071;-91
2023/07/20 07:04:26;;;;;;;1.02;0.40;;;17.80;99.90;;;;;;5049773;28;20029;-90
2023/07/20 07:06:51;;;;;;;0.82;0.40;;;17.70;99.90;;;;;;5056339;28;20461;-91
2023/07/20 07:09:17;;;;;;;2.50;0.35;;;17.80;99.90;;;;;;5056345;28;20144;-91
2023/07/20 07:11:43;;;;;;;1.17;0.40;;;17.90;99.90;;;;;;5056736;28;20025;-90
2023/07/20 07:14:08;;;;;;;1.65;0.30;;;18.00;99.90;;;;;;5055447;28;20037;-90
2023/07/20 07:16:34;;;;;;;3.20;0.30;;;18.10;99.90;;;;;;5053420;28;20132;-91
2023/07/20 07:18:59;;;;;;;2.90;0.38;;;18.30;99.90;;;;;;5055660;28;20419;-91
2023/07/20 07:21:25;;;;;;;0.85;0.20;;;18.40;99.90;;;;;;5054636;28;20545;-91
2023/07/20 07:23:52;;;;;;;1.50;0.32;;;18.50;99.90;;;;;;5054694;28;20029;-90
2023/07/20 07:26:19;;;;;;;1.92;0.75;;;18.50;99.90;;;;;;5055666;28;20059;-91
2023/07/20 07:28:44;;;;;;;2.03;1.13;;;18.60;99.90;;;;;;5059071;28;20559;-91
2023/07/20 07:31:10;;;;;;;2.80;0.90;;;18.60;99.90;;;;;;5058091;28;20110;-90
2023/07/20 07:33:35;;;;;;;1.55;0.77;;;18.70;99.90;;;;;;5055679;28;20039;-91
2023/07/20 07:36:01;;;;;;;2.88;0.88;;;18.60;99.90;;;;;;5056061;28;20025;-91
2023/07/20 07:38:27;;;;;;;1.83;0.75;;;18.50;99.90;;;;;;5050566;28;20037;-91
2023/07/20 07:40:52;;;;;;;1.88;0.80;;;18.40;99.90;;;;;;5052252;28;20136;-91
2023/07/20 07:43:18;;;;;;;2.17;0.80;;;18.30;99.90;;;;;;5051578;28;20059;-90
2023/07/20 07:45:43;;;;;;;2.53;0.90;;;18.20;99.90;;;;;;5053368;28;20029;-90
2023/07/20 07:48:12;;;;;;;1.98;0.95;;;18.20;99.90;;;;;;5055996;28;20029;-90
2023/07/20 07:50:40;;;;;;;1.80;1.27;;;18.10;99.90;;;;;;5055605;28;20059;-91
2023/07/20 07:53:05;;;;;;;3.47;0.85;;;18.10;99.90;;;;;;5039384;28;20115;-90
2023/07/20 07:55:31;;;;;;;3.22;1.02;;;18.00;99.90;;;;;;5034822;28;20057;-91
2023/07/20 07:57:56;;;;;;;2.67;0.80;;;17.90;99.90;;;;;;5045304;28;20112;-91
2023/07/20 08:00:22;;;;;;;1.27;0.68;;;17.90;99.90;;;;;;5056654;28;20111;-91
2023/07/20 08:02:50;;;;;;;2.35;0.77;;;17.90;99.90;;;;;;5054261;28;20032;-92
2023/07/20 08:05:16;;;;;;;3.78;1.13;;;18.00;99.90;;;;;;5044603;28;20032;-92
2023/07/20 08:07:43;;;;;;;1.35;0.73;;;18.10;99.90;;;;;;5037392;28;20111;-92
2023/07/20 08:10:09;;;;;;;2.17;0.52;;;18.20;99.90;;;;;;5035146;28;20091;-91
2023/07/20 08:12:34;;;;;;;0.95;0.50;;;18.30;99.90;;;;;;5047351;28;20028;-91
2023/07/20 08:15:00;;;;;;;1.15;0.65;;;18.60;99.90;;;;;;5054620;28;20406;-90
2023/07/20 08:17:25;;;;;;;1.67;0.60;;;18.90;99.90;;;;;;5057785;28;20035;-91
2023/07/20 08:19:51;;;;;;;0.85;0.40;;;19.10;99.90;;;;;;5057493;28;20112;-91
2023/07/20 08:22:16;;;;;;;1.55;0.30;;;19.40;99.90;;;;;;5057970;28;20040;-90
2023/07/20 08:24:43;;;;;;;2.13;0.30;;;19.50;99.90;;;;;;5058341;28;20025;-91
2023/07/20 08:27:09;;;;;;;1.10;0.30;;;19.60;99.90;;;;;;5057884;28;20021;-91
2023/07/20 08:29:35;;;;;;;2.83;0.40;;;19.70;99.90;;;;;;5059143;28;20112;-91
2023/07/20 08:32:01;;;;;;;2.67;0.30;;;19.80;99.90;;;;;;5059053;28;20020;-91
2023/07/20 08:34:26;;;;;;;1.60;0.40;;;20.00;99.90;;;;;;5059703;28;20102;-91
2023/07/20 08:36:52;;;;;;;2.10;0.22;;;20.00;99.90;;;;;;5061483;28;20021;-92
2023/07/20 08:39:17;;;;;;;0.93;0.20;;;20.10;99.90;;;;;;5057945;28;20079;-92
2023/07/20 08:41:43;;;;;;;1.38;0.20;;;20.20;99.90;;;;;;5057496;28;20017;-91
2023/07/20 08:44:10;;;;;;;1.02;0.25;;;20.30;99.90;;;;;;5046921;28;20028;-93
2023/07/20 08:46:38;;;;;;;0.70;0.20;;;20.40;99.90;;;;;;5051383;28;20055;-92
2023/07/20 08:49:04;;;;;;;0.63;0.30;;;20.50;99.90;;;;;;5058862;28;20033;-92
2023/07/20 08:51:31;;;;;;;1.25;0.30;;;20.50;99.90;;;;;;5058844;28;20562;-93
2023/07/20 08:53:58;;;;;;;0.60;0.30;;;20.50;99.90;;;;;;5059481;28;20071;-92
2023/07/20 08:56:26;;;;;;;1.15;0.30;;;20.50;99.90;;;;;;5060466;28;20025;-93
2023/07/20 08:58:56;;;;;;;2.65;0.20;;;20.60;99.90;;;;;;5057146;28;20029;-93
2023/07/20 09:01:22;;;;;;;1.30;0.35;;;20.80;99.90;;;;;;5037777;28;20028;-92
2023/07/20 09:03:48;;;;;;;0.77;0.28;;;20.90;99.90;;;;;;5040976;28;20040;-93
2023/07/20 09:06:14;;;;;;;1.23;0.30;;;21.10;99.90;;;;;;5052119;28;20021;-94
2023/07/20 09:08:40;;;;;;;2.50;0.30;;;21.40;99.90;;;;;;5058711;28;20021;-93
2023/07/20 09:11:06;;;;;;;0.80;0.22;;;21.60;99.90;;;;;;5056711;28;20029;-94
2023/07/20 09:13:33;;;;;;;1.25;0.30;;;21.80;99.90;;;;;;5064680;28;20016;-94
2023/07/20 09:15:59;;;;;;;2.03;0.30;;;21.90;99.90;;;;;;5065565;28;20508;-94
2023/07/20 09:18:29;;;;;;;2.35;0.30;;;21.80;99.90;;;;;;5050130;28;20078;-94
2023/07/20 09:21:02;;;;;;;1.08;0.20;;;21.70;99.90;;;;;;5052403;28;20032;-94
2023/07/20 09:23:41;;;;;;;1.40;0.40;;;21.60;99.90;;;;;;5047653;28;20033;-95
2023/07/20 09:26:11;;;;;;;0.88;0.20;;;21.50;99.90;;;;;;5033884;28;20452;-94
2023/07/20 09:28:47;;;;;;;1.65;0.30;;;21.40;99.90;;;;;;5052509;28;20029;-95
2023/07/20 09:31:17;;;;;;;1.38;0.30;;;21.50;99.90;;;;;;5052170;28;20033;-94
2023/07/20 09:33:43;;;;;;;0.82;0.20;;;21.50;99.90;;;;;;5053308;28;20047;-95
2023/07/20 09:36:11;;;;;;;1.10;0.30;;;21.50;99.90;;;;;;5053306;28;20536;-95
2023/07/20 09:38:37;;;;;;;0.77;0.30;;;21.50;99.90;;;;;;5056027;28;20032;-94
2023/07/20 09:41:05;;;;;;;0.80;0.20;;;21.40;99.90;;;;;;5032861;28;20029;-96
2023/07/20 09:43:33;;;;;;;0.90;0.30;;;21.30;99.90;;;;;;5033947;28;20053;-95
2023/07/20 09:45:59;;;;;;;1.10;0.30;;;21.30;99.90;;;;;;5040916;28;20032;-96
2023/07/20 09:48:26;;;;;;;1.00;0.40;;;21.30;99.80;;;;;;5055452;28;20017;-94
2023/07/20 09:50:52;;;;;;;1.50;0.30;;;21.20;99.70;;;;;;5056226;28;20119;-95
2023/07/20 09:53:19;;;;;;;1.90;0.20;;;21.20;99.60;;;;;;5056269;28;20021;-95
2023/07/20 09:55:46;;;;;;;1.20;0.30;;;21.30;99.90;;;;;;5056351;28;20025;-94
2023/07/20 09:58:12;;;;;;;2.15;0.30;;;21.50;99.50;;;;;;5054605;28;20025;-94
2023/07/20 10:00:38;;;;;;;0.70;0.30;;;21.70;99.00;;;;;;5054012;28;20093;-95
2023/07/20 10:03:05;;;;;;;0.98;0.40;;;21.90;99.00;;;;;;5071173;28;20028;-95
2023/07/20 10:05:34;;;;;;;1.02;0.30;;;22.00;98.30;;;;;;5053028;28;20120;-94
2023/07/20 10:08:02;;;;;;;0.88;0.30;;;22.20;98.20;;;;;;5040547;28;20030;-94
2023/07/20 10:10:31;;;;;;;1.20;0.50;;;22.30;97.50;;;;;;5053492;28;20040;-94
2023/07/20 10:12:58;;;;;;;0.50;0.22;;;22.20;97.20;;;;;;5046721;28;20472;-94
2023/07/20 10:15:34;;;;;;;0.82;0.30;;;22.30;97.30;;;;;;5044040;28;20148;-94
2023/07/20 10:18:23;;;;;;;1.30;0.20;;;22.40;96.70;;;;;;5053410;28;20025;-95
2023/07/20 10:20:51;;;;;;;1.77;0.30;;;22.50;96.30;;;;;;5049222;28;22108;-94
2023/07/20 10:23:17;;;;;;;2.38;0.40;;;22.40;95.90;;;;;;5054782;28;20056;-94
2023/07/20 10:25:43;;;;;;;2.33;0.20;;;22.20;95.90;;;;;;5048476;28;20025;-94
2023/07/20 10:28:10;;;;;;;1.30;0.30;;;22.20;96.40;;;;;;5049292;28;20503;-94
2023/07/20 10:33:06;;;;;;;1.00;0.30;;;22.00;96.50;;;;;;5061108;28;20052;-74
2023/07/20 10:35:55;;;;;;;1.85;0.22;;;22.00;96.70;;;;;;5042376;28;20107;-74
2023/07/20 10:38:42;;;;;;;1.25;0.30;;;22.10;96.70;;;;;;5061308;28;20391;-74
2023/07/20 10:41:17;;;;;;;1.40;0.30;;;22.20;96.60;;;;;;5051894;28;20387;-74
2023/07/20 10:43:44;;;;;;;1.20;0.20;;;22.20;96.00;;;;;;5055096;28;20104;-74
2023/07/20 10:46:11;;;;;;;1.38;0.47;;;22.20;96.20;;;;;;5061801;28;20497;-74
2023/07/20 10:49:01;;;;;;;1.80;0.35;;;22.30;95.70;;;;;;5043520;28;20056;-74
2023/07/20 10:51:27;;;;;;;1.05;0.50;;;22.40;95.80;;;;;;5066280;28;20035;-74
2023/07/20 10:53:54;;;;;;;1.85;0.40;;;22.60;95.10;;;;;;5060238;28;20473;-74
2023/07/20 10:56:21;;;;;;;1.65;0.40;;;22.60;94.90;;;;;;5057537;28;20017;-74
2023/07/20 10:58:47;;;;;;;0.98;0.40;;;22.70;94.70;;;;;;5046154;28;20033;-74
2023/07/20 11:01:15;;;;;;;1.08;0.40;;;22.80;94.70;;;;;;5062671;28;20045;-74
2023/07/20 11:03:41;;;;;;;0.88;0.45;;;23.00;94.80;;;;;;5073121;28;20118;-74
2023/07/20 11:06:27;;;;;;;1.77;0.52;;;23.20;94.40;;;;;;5074434;28;20025;-74
2023/07/20 11:09:06;;;;;;;0.80;0.30;;;23.40;93.90;;;;;;5054272;28;20051;-74
2023/07/20 11:11:35;;;;;;;1.02;0.47;;;23.40;93.20;;;;;;5071040;28;20025;-73
2023/07/20 11:14:09;;;;;;;0.90;0.20;;;23.50;92.10;;;;;;5063850;28;20021;-74
2023/07/20 11:16:43;;;;;;;2.13;0.22;;;23.50;92.10;;;;;;5073872;28;20503;-74
2023/07/20 11:19:25;;;;;;;0.85;0.20;;;23.40;91.10;;;;;;5074716;28;20036;-74
2023/07/20 11:21:55;;;;;;;1.90;0.25;;;23.30;91.70;;;;;;5074519;28;20076;-74
2023/07/20 11:24:21;;;;;;;1.02;0.30;;;23.30;91.80;;;;;;5072873;28;20131;-74
2023/07/20 11:26:52;;;;;;;1.10;0.40;;;23.40;91.60;;;;;;5074318;28;20515;-74
2023/07/20 11:29:23;;;;;;;0.80;0.30;;;23.60;90.70;;;;;;5074478;28;20368;-74
2023/07/20 11:31:50;;;;;;;2.80;0.35;;;23.70;90.20;;;;;;5074140;28;20087;-74
2023/07/20 11:34:19;;;;;;;0.80;0.30;;;23.80;89.70;;;;;;5054106;28;20104;-74
2023/07/20 11:36:47;;;;;;;1.65;0.30;;;24.10;89.80;;;;;;5067772;28;20051;-74
2023/07/20 11:39:16;;;;;;;0.55;0.22;;;24.20;88.60;;;;;;5070513;28;20417;-74
2023/07/20 11:41:53;;;;;;;1.00;0.30;;;24.30;87.80;;;;;;5063931;28;20536;-74
2023/07/20 11:44:26;;;;;;;2.63;0.30;;;24.30;86.20;;;;;;5029910;28;20608;-74
2023/07/20 11:47:07;;;;;;;0.95;0.30;;;24.20;85.30;;;;;;5019800;28;21427;-75
2023/07/20 11:49:41;;;;;;;0.77;0.30;;;24.20;84.80;;;;;;5071628;28;20029;-74
2023/07/20 11:52:08;;;;;;;1.63;0.30;;;24.40;84.10;;;;;;5069241;28;20017;-74
2023/07/20 11:54:39;;;;;;;0.75;0.30;;;24.60;83.60;;;;;;5057045;28;20111;-74
2023/07/20 11:57:07;;;;;;;0.70;0.30;;;24.90;83.30;;;;;;5054058;28;20110;-74
2023/07/20 11:59:34;;;;;;;2.05;0.45;;;24.90;83.00;;;;;;5073542;28;20028;-73
2023/07/20 12:02:03;;;;;;;0.85;0.28;;;25.10;82.50;;;;;;5073063;28;20529;-74
2023/07/20 12:04:29;;;;;;;0.93;0.40;;;25.20;81.40;;;;;;5071178;28;20032;-74
2023/07/20 12:06:57;;;;;;;2.30;0.40;;;25.10;80.10;;;;;;5060636;28;20028;-74
2023/07/20 12:09:23;;;;;;;1.10;0.40;;;24.70;80.50;;;;;;5067923;28;20109;-74
2023/07/20 12:11:50;;;;;;;1.42;0.50;;;24.50;82.00;;;;;;5070562;28;20056;-73
2023/07/20 12:14:17;;;;;;;2.58;0.50;;;24.30;81.90;;;;;;5071661;28;20048;-74
2023/07/20 12:16:43;;;;;;;1.40;0.57;;;24.20;82.50;;;;;;5068957;28;20552;-74
2023/07/20 12:19:13;;;;;;;1.40;0.38;;;24.20;82.80;;;;;;5069857;28;20036;-74
2023/07/20 12:21:41;;;;;;;2.08;0.38;;;23.90;82.60;;;;;;5067214;28;20111;-74
2023/07/20 12:24:09;;;;;;;1.08;0.50;;;23.70;83.30;;;;;;5062148;28;20025;-74
2023/07/20 12:26:35;;;;;;;1.52;0.50;;;23.60;83.20;;;;;;5071089;28;20020;-74
2023/07/20 12:29:01;;;;;;;1.40;0.40;;;23.60;83.50;;;;;;5062965;28;20116;-74
2023/07/20 12:31:27;;;;;;;2.00;0.85;;;23.60;84.70;;;;;;5071882;28;20037;-74
2023/07/20 12:33:57;;;;;;;2.20;0.50;;;24.00;83.40;;;;;;5072963;28;20099;-74
2023/07/20 12:36:23;;;;;;;1.10;0.47;;;24.20;83.20;;;;;;5070049;28;20043;-74
2023/07/20 12:38:49;;;;;;;0.93;0.40;;;24.30;82.50;;;;;;5072328;28;20391;-74
2023/07/20 12:41:14;;;;;;;0.77;0.35;;;24.60;81.60;;;;;;5070099;28;20021;-74
2023/07/20 12:43:44;;;;;;;1.20;0.52;;;24.70;81.30;;;;;;5068250;28;20021;-74
2023/07/20 12:46:14;;;;;;;0.98;0.40;;;24.70;79.70;;;;;;5069769;28;20073;-74
2023/07/20 12:48:41;;;;;;;1.10;0.50;;;24.60;78.40;;;;;;5066498;28;20107;-74